createdAt,value
2017-09-07T00:00:51.479Z,90.92
2017-09-07T00:03:17.279Z,90.66
2017-09-07T00:05:43.052Z,92.05
2017-09-07T00:08:08.811Z,91.58
2017-09-07T00:10:34.578Z,90.58
2017-09-07T00:13:00.464Z,91.11
2017-09-07T00:15:26.227Z,90.94
2017-09-07T00:17:51.998Z,90.57
2017-09-07T00:20:54.992Z,90.26
2017-09-07T00:23:20.743Z,90.48
2017-09-07T00:25:46.490Z,90.76
2017-09-07T00:28:12.288Z,90.14
2017-09-07T00:30:38.064Z,89.90
2017-09-07T00:33:03.828Z,91.21
2017-09-07T00:35:29.595Z,89.61
2017-09-07T00:37:55.349Z,90.28
2017-09-07T00:40:21.113Z,90.40
2017-09-07T00:42:46.873Z,90.83
2017-09-07T00:45:12.655Z,90.34
2017-09-07T00:47:38.455Z,89.66
2017-09-07T00:50:04.266Z,88.63
2017-09-07T00:52:30.036Z,88.87
2017-09-07T00:54:55.923Z,90.18
2017-09-07T00:57:21.671Z,89.22
2017-09-07T00:59:47.535Z,88.25
2017-09-07T01:02:13.317Z,88.28
2017-09-07T01:04:39.103Z,88.22
2017-09-07T01:07:04.915Z,89.14
2017-09-07T01:09:30.678Z,88.14
2017-09-07T01:11:56.479Z,88.50
2017-09-07T01:14:22.268Z,88.66
2017-09-07T01:16:48.115Z,87.75
2017-09-07T01:19:13.918Z,88.20
2017-09-07T01:21:39.722Z,88.01
2017-09-07T01:24:05.491Z,88.29
2017-09-07T01:26:31.299Z,88.44
2017-09-07T01:28:57.095Z,88.71
2017-09-07T01:31:22.843Z,88.06
2017-09-07T01:33:48.637Z,88.88
2017-09-07T01:36:14.435Z,89.24
2017-09-07T01:38:40.211Z,88.80
2017-09-07T01:41:05.960Z,89.69
2017-09-07T01:43:31.707Z,89.85
2017-09-07T01:45:57.498Z,89.69
2017-09-07T01:48:35.658Z,89.59
2017-09-07T01:51:01.475Z,89.00
2017-09-07T01:53:27.227Z,88.99
2017-09-07T01:55:53.090Z,89.37
2017-09-07T01:58:18.860Z,88.89
2017-09-07T02:00:44.619Z,88.14
2017-09-07T02:03:10.408Z,87.71
2017-09-07T02:05:36.193Z,87.29
2017-09-07T02:08:01.983Z,87.53
2017-09-07T02:10:27.731Z,87.86
2017-09-07T02:12:53.527Z,87.64
2017-09-07T02:15:19.319Z,86.82
2017-09-07T02:17:45.075Z,87.34
2017-09-07T02:20:10.823Z,86.87
2017-09-07T02:22:36.600Z,87.37
2017-09-07T02:25:02.407Z,86.23
2017-09-07T02:27:28.178Z,86.22
2017-09-07T02:29:53.927Z,86.72
2017-09-07T02:32:19.712Z,85.83
2017-09-07T02:34:45.472Z,86.67
2017-09-07T02:37:11.221Z,87.62
2017-09-07T02:39:37.026Z,87.83
2017-09-07T02:42:02.828Z,88.05
2017-09-07T02:44:28.607Z,87.29
2017-09-07T02:46:54.361Z,87.09
2017-09-07T02:49:20.143Z,88.26
2017-09-07T02:51:45.939Z,87.32
2017-09-07T02:54:11.726Z,87.73
2017-09-07T02:56:37.487Z,87.22
2017-09-07T02:59:03.255Z,86.96
2017-09-07T03:01:29.000Z,88.46
2017-09-07T03:03:54.886Z,88.46
2017-09-07T03:06:20.634Z,87.36
2017-09-07T03:08:46.384Z,87.60
2017-09-07T03:11:12.170Z,88.04
2017-09-07T03:13:37.919Z,87.95
2017-09-07T03:16:03.682Z,87.78
2017-09-07T03:18:29.450Z,87.38
2017-09-07T03:20:55.219Z,87.18
2017-09-07T03:23:21.012Z,86.90
2017-09-07T03:25:46.763Z,86.67
2017-09-07T03:28:12.527Z,85.62
2017-09-07T03:30:38.316Z,85.97
2017-09-07T03:33:04.078Z,86.87
2017-09-07T03:35:29.834Z,87.34
2017-09-07T03:37:55.622Z,88.70
2017-09-07T03:40:21.407Z,89.77
2017-09-07T03:42:47.182Z,91.32
2017-09-07T03:45:13.008Z,90.16
2017-09-07T03:47:38.773Z,90.45
2017-09-07T03:50:04.623Z,90.21
2017-09-07T03:52:30.412Z,89.39
2017-09-07T03:54:56.175Z,89.36
2017-09-07T03:57:21.941Z,88.28
2017-09-07T03:59:47.766Z,88.99
2017-09-07T04:02:13.499Z,88.44
2017-09-07T04:04:39.253Z,88.94
2017-09-07T04:07:05.112Z,89.85
2017-09-07T04:09:30.899Z,90.13
2017-09-07T04:11:56.689Z,90.32
2017-09-07T04:14:22.461Z,90.80
2017-09-07T04:16:48.235Z,89.54
2017-09-07T04:19:14.010Z,90.25
2017-09-07T04:21:39.754Z,89.66
2017-09-07T04:24:05.578Z,90.09
2017-09-07T04:26:31.332Z,89.84
2017-09-07T04:28:57.107Z,89.29
2017-09-07T04:31:22.874Z,89.90
2017-09-07T04:33:48.645Z,89.67
2017-09-07T04:36:14.475Z,90.08
2017-09-07T04:38:40.264Z,89.60
2017-09-07T04:41:06.025Z,88.83
2017-09-07T04:43:31.795Z,89.10
2017-09-07T04:45:57.586Z,88.46
2017-09-07T04:48:23.360Z,89.66
2017-09-07T04:50:49.124Z,89.76
2017-09-07T04:53:14.908Z,89.14
2017-09-07T04:55:40.766Z,89.98
2017-09-07T04:58:06.558Z,89.98
2017-09-07T05:00:32.320Z,89.91
2017-09-07T05:02:58.062Z,89.96
2017-09-07T05:05:23.843Z,88.65
2017-09-07T05:07:49.589Z,89.33
2017-09-07T05:10:15.366Z,89.25
2017-09-07T05:12:41.125Z,90.14
2017-09-07T05:15:06.951Z,89.49
2017-09-07T05:17:32.736Z,90.13
2017-09-07T05:19:58.511Z,90.02
2017-09-07T05:22:24.286Z,90.48
2017-09-07T05:24:50.035Z,90.07
2017-09-07T05:27:15.883Z,90.01
2017-09-07T05:29:41.639Z,88.78
2017-09-07T05:32:07.403Z,88.29
2017-09-07T05:34:33.188Z,89.15
2017-09-07T05:36:58.959Z,88.90
2017-09-07T05:39:25.469Z,88.16
2017-09-07T05:41:51.215Z,88.11
2017-09-07T05:44:17.006Z,89.18
2017-09-07T05:46:42.757Z,88.88
2017-09-07T05:49:08.563Z,89.31
2017-09-07T05:51:34.339Z,89.75
2017-09-07T05:54:00.152Z,88.59
2017-09-07T05:56:25.922Z,88.10
2017-09-07T05:58:51.703Z,90.25
2017-09-07T06:01:17.489Z,90.56
2017-09-07T06:03:43.321Z,89.13
2017-09-07T06:06:09.536Z,87.11
2017-09-07T06:08:35.286Z,86.64
2017-09-07T06:11:01.078Z,86.80
2017-09-07T06:13:26.843Z,85.58
2017-09-07T06:15:52.615Z,84.55
2017-09-07T06:18:18.443Z,85.23
2017-09-07T06:20:44.283Z,84.78
2017-09-07T06:23:10.059Z,83.73
2017-09-07T06:25:35.858Z,84.28
2017-09-07T06:28:01.606Z,83.82
2017-09-07T06:30:27.536Z,82.38
2017-09-07T06:32:53.329Z,82.32
2017-09-07T06:35:19.111Z,81.80
2017-09-07T06:37:44.889Z,81.82
2017-09-07T06:40:10.637Z,82.47
2017-09-07T06:42:36.411Z,82.30
2017-09-07T06:45:02.162Z,81.19
2017-09-07T06:47:27.903Z,82.12
2017-09-07T06:49:53.678Z,81.83
2017-09-07T06:52:19.419Z,82.86
2017-09-07T06:54:45.255Z,82.41
2017-09-07T06:57:11.015Z,82.39
2017-09-07T06:59:36.855Z,81.28
2017-09-07T07:02:02.629Z,81.50
2017-09-07T07:04:28.372Z,80.62
2017-09-07T07:06:54.167Z,80.59
2017-09-07T07:09:20.015Z,79.71
2017-09-07T07:11:45.779Z,79.42
2017-09-07T07:14:11.558Z,79.08
2017-09-07T07:16:37.294Z,78.52
2017-09-07T07:19:03.115Z,77.88
2017-09-07T07:21:28.899Z,78.37
2017-09-07T07:23:54.679Z,78.51
2017-09-07T07:26:20.464Z,77.66
2017-09-07T07:28:46.274Z,76.64
2017-09-07T07:31:12.015Z,76.81
2017-09-07T07:33:37.771Z,76.22
2017-09-07T07:36:03.526Z,76.39
2017-09-07T07:38:29.315Z,76.75
2017-09-07T07:40:55.131Z,76.50
2017-09-07T07:43:20.892Z,76.48
2017-09-07T07:45:46.688Z,77.86
2017-09-07T07:48:12.500Z,76.38
2017-09-07T07:50:38.300Z,75.75
2017-09-07T07:53:04.043Z,74.74
2017-09-07T07:55:29.819Z,74.68
2017-09-07T07:57:55.615Z,72.87
2017-09-07T08:00:21.364Z,73.06
2017-09-07T08:02:47.145Z,73.08
2017-09-07T08:05:12.903Z,71.98
2017-09-07T08:07:38.666Z,70.45
2017-09-07T08:10:04.419Z,69.54
2017-09-07T08:12:30.200Z,69.63
2017-09-07T08:14:57.059Z,64.95
2017-09-07T08:17:22.847Z,63.07
2017-09-07T08:19:48.667Z,61.88
2017-09-07T08:22:14.443Z,62.92
2017-09-07T08:24:40.189Z,61.46
2017-09-07T08:27:06.042Z,61.63
2017-09-07T08:29:31.828Z,61.24
2017-09-07T08:31:57.663Z,60.54
2017-09-07T08:34:23.446Z,61.55
2017-09-07T08:36:49.213Z,60.01
2017-09-07T08:39:14.971Z,60.96
2017-09-07T08:41:40.769Z,57.91
2017-09-07T08:44:06.587Z,57.71
2017-09-07T08:46:32.356Z,57.75
2017-09-07T08:48:58.143Z,56.31
2017-09-07T08:51:23.883Z,55.83
2017-09-07T08:53:49.634Z,54.82
2017-09-07T08:56:15.413Z,56.56
2017-09-07T08:58:41.234Z,55.49
2017-09-07T09:01:07.007Z,54.97
2017-09-07T09:03:32.761Z,55.53
2017-09-07T09:05:58.573Z,52.62
2017-09-07T09:08:24.359Z,56.45
2017-09-07T09:10:50.109Z,57.66
2017-09-07T09:13:15.871Z,57.34
2017-09-07T09:15:41.671Z,58.01
2017-09-07T09:18:07.417Z,60.42
2017-09-07T09:20:33.187Z,60.57
2017-09-07T09:22:58.965Z,59.35
2017-09-07T09:25:24.752Z,59.69
2017-09-07T09:27:50.499Z,60.70
2017-09-07T09:30:16.359Z,60.88
2017-09-07T09:32:42.130Z,61.61
2017-09-07T09:35:07.891Z,61.23
2017-09-07T09:37:33.674Z,60.18
2017-09-07T09:39:59.447Z,61.14
2017-09-07T09:42:25.221Z,62.35
2017-09-07T09:44:50.990Z,62.61
2017-09-07T09:47:16.748Z,62.19
2017-09-07T09:49:42.571Z,63.60
2017-09-07T09:52:08.316Z,63.00
2017-09-07T09:54:34.063Z,63.29
2017-09-07T09:56:59.835Z,63.39
2017-09-07T09:59:25.589Z,64.08
2017-09-07T10:01:51.371Z,63.91
2017-09-07T10:04:17.162Z,63.15
2017-09-07T10:06:42.901Z,63.37
2017-09-07T10:09:08.662Z,62.19
2017-09-07T10:11:34.491Z,62.77
2017-09-07T10:14:00.246Z,62.33
2017-09-07T10:16:26.032Z,61.94
2017-09-07T10:18:51.812Z,61.87
2017-09-07T10:21:17.579Z,62.84
2017-09-07T10:23:43.353Z,65.13
2017-09-07T10:26:09.137Z,62.57
2017-09-07T10:28:34.902Z,63.50
2017-09-07T10:31:00.674Z,63.36
2017-09-07T10:33:26.423Z,63.26
2017-09-07T10:35:52.215Z,63.10
2017-09-07T10:38:17.958Z,63.52
2017-09-07T10:40:43.867Z,65.28
2017-09-07T10:43:09.624Z,66.13
2017-09-07T10:45:36.960Z,64.98
2017-09-07T10:48:02.762Z,65.61
2017-09-07T10:50:28.503Z,65.53
2017-09-07T10:52:54.280Z,65.78
2017-09-07T10:55:20.811Z,65.71
2017-09-07T10:57:46.652Z,65.92
2017-09-07T11:00:12.463Z,64.39
2017-09-07T11:02:38.243Z,64.68
2017-09-07T11:05:04.018Z,64.08
2017-09-07T11:07:29.765Z,63.25
2017-09-07T11:09:55.618Z,63.97
2017-09-07T11:12:22.094Z,62.00
2017-09-07T11:14:47.842Z,61.08
2017-09-07T11:17:13.637Z,57.61
2017-09-07T11:19:39.376Z,58.71
2017-09-07T11:22:05.115Z,59.39
2017-09-07T11:24:30.967Z,60.53
2017-09-07T11:26:56.716Z,60.21
2017-09-07T11:29:22.547Z,59.65
2017-09-07T11:31:48.307Z,58.85
2017-09-07T11:34:14.068Z,57.27
2017-09-07T11:36:39.839Z,58.05
2017-09-07T11:39:05.619Z,59.16
2017-09-07T11:41:31.487Z,57.43
2017-09-07T11:43:57.240Z,58.87
2017-09-07T11:46:23.015Z,58.82
2017-09-07T11:48:48.783Z,58.16
2017-09-07T11:51:14.628Z,57.65
2017-09-07T11:53:40.387Z,57.46
2017-09-07T11:56:06.190Z,56.17
2017-09-07T11:58:31.967Z,56.39
2017-09-07T12:00:57.870Z,58.59
2017-09-07T12:03:23.727Z,58.20
2017-09-07T12:05:49.571Z,55.45
2017-09-07T12:08:15.415Z,54.94
2017-09-07T12:10:41.386Z,54.60
2017-09-07T12:13:07.179Z,57.02
2017-09-07T12:15:32.942Z,56.80
2017-09-07T12:17:58.763Z,57.60
2017-09-07T12:20:24.503Z,58.01
2017-09-07T12:22:50.266Z,59.26
2017-09-07T12:25:16.107Z,59.55
2017-09-07T12:27:43.172Z,59.75
2017-09-07T12:30:08.951Z,60.55
2017-09-07T12:32:34.778Z,61.19
2017-09-07T12:35:00.631Z,61.04
2017-09-07T12:37:26.383Z,62.15
2017-09-07T12:39:52.131Z,62.69
2017-09-07T12:42:17.927Z,62.33
2017-09-07T12:44:43.715Z,62.20
2017-09-07T12:47:09.455Z,61.51
2017-09-07T12:49:35.231Z,60.06
2017-09-07T12:52:01.087Z,57.63
2017-09-07T12:54:26.915Z,57.75
2017-09-07T12:56:53.014Z,56.73
2017-09-07T12:59:18.991Z,56.33
2017-09-07T13:01:44.763Z,54.19
2017-09-07T13:04:10.631Z,53.47
2017-09-07T13:06:36.383Z,54.86
2017-09-07T13:09:02.195Z,53.86
2017-09-07T13:11:27.968Z,53.12
2017-09-07T13:13:53.783Z,53.10
2017-09-07T13:16:19.569Z,53.76
2017-09-07T13:18:45.330Z,54.86
2017-09-07T13:21:11.115Z,55.20
2017-09-07T13:23:36.863Z,55.80
2017-09-07T13:26:02.618Z,55.18
2017-09-07T13:28:28.426Z,55.49
2017-09-07T13:30:54.174Z,54.98
2017-09-07T13:33:19.928Z,55.10
2017-09-07T13:35:45.763Z,55.47
2017-09-07T13:38:11.512Z,53.38
2017-09-07T13:40:37.287Z,53.12
2017-09-07T13:43:03.127Z,53.87
2017-09-07T13:45:28.902Z,53.03
2017-09-07T13:47:54.655Z,52.72
2017-09-07T13:50:20.839Z,52.34
2017-09-07T13:52:47.138Z,52.39
2017-09-07T13:55:12.943Z,51.18
2017-09-07T13:57:38.794Z,48.41
2017-09-07T14:00:04.580Z,46.91
2017-09-07T14:02:30.995Z,47.72
2017-09-07T14:04:56.891Z,50.35
2017-09-07T14:07:22.657Z,52.14
2017-09-07T14:09:48.419Z,52.83
2017-09-07T14:12:14.230Z,53.42
2017-09-07T14:14:39.979Z,53.67
2017-09-07T14:17:05.763Z,53.80
2017-09-07T14:19:31.535Z,52.99
2017-09-07T14:21:57.303Z,51.51
2017-09-07T14:24:23.111Z,50.62
2017-09-07T14:26:48.959Z,52.77
2017-09-07T14:29:14.715Z,51.60
2017-09-07T14:31:41.075Z,50.65
2017-09-07T14:34:06.839Z,50.48
2017-09-07T14:36:32.620Z,51.31
2017-09-07T14:38:58.400Z,50.54
2017-09-07T14:41:24.182Z,50.83
2017-09-07T14:43:50.071Z,49.51
2017-09-07T14:46:15.814Z,49.57
2017-09-07T14:48:41.552Z,51.61
2017-09-07T14:51:07.454Z,50.57
2017-09-07T14:53:33.210Z,50.39
2017-09-07T14:55:58.965Z,50.23
2017-09-07T14:58:24.810Z,50.65
2017-09-07T15:00:50.887Z,50.60
2017-09-07T15:03:16.638Z,47.35
2017-09-07T15:05:43.231Z,47.14
2017-09-07T15:08:09.079Z,48.58
2017-09-07T15:10:34.838Z,48.69
2017-09-07T15:13:00.650Z,49.39
2017-09-07T15:15:26.432Z,49.39
2017-09-07T15:17:52.222Z,51.53
2017-09-07T15:20:18.051Z,46.57
2017-09-07T15:22:43.861Z,47.94
2017-09-07T15:25:09.831Z,46.50
2017-09-07T15:27:35.608Z,46.02
2017-09-07T15:30:01.439Z,48.24
2017-09-07T15:32:27.230Z,46.82
2017-09-07T15:34:53.107Z,47.06
2017-09-07T15:37:18.900Z,45.83
2017-09-07T15:39:45.661Z,44.81
2017-09-07T15:42:11.845Z,46.21
2017-09-07T15:44:37.681Z,45.69
2017-09-07T15:47:03.444Z,46.89
2017-09-07T15:49:29.228Z,48.25
2017-09-07T15:51:55.015Z,47.91
2017-09-07T15:54:20.843Z,46.52
2017-09-07T15:56:46.666Z,48.71
2017-09-07T15:59:13.484Z,48.65
2017-09-07T16:01:39.363Z,49.61
2017-09-07T16:04:05.104Z,49.50
2017-09-07T16:06:30.887Z,50.16
2017-09-07T16:08:56.634Z,48.76
2017-09-07T16:11:22.435Z,50.12
2017-09-07T16:13:48.182Z,48.79
2017-09-07T16:16:13.995Z,50.17
2017-09-07T16:18:39.760Z,50.85
2017-09-07T16:21:05.504Z,49.98
2017-09-07T16:23:32.236Z,49.14
2017-09-07T16:25:57.994Z,50.76
2017-09-07T16:28:23.794Z,48.93
2017-09-07T16:30:49.711Z,50.40
2017-09-07T16:33:15.455Z,50.91
2017-09-07T16:35:41.270Z,51.42
2017-09-07T16:38:07.115Z,51.01
2017-09-07T16:40:32.878Z,51.64
2017-09-07T16:42:58.638Z,52.16
2017-09-07T16:45:24.471Z,52.57
2017-09-07T16:47:50.285Z,52.80
2017-09-07T16:50:16.806Z,53.15
2017-09-07T16:52:42.553Z,54.61
2017-09-07T16:55:08.396Z,55.11
2017-09-07T16:57:34.181Z,54.95
2017-09-07T16:59:59.931Z,56.88
2017-09-07T17:02:25.807Z,57.16
2017-09-07T17:04:51.555Z,55.06
2017-09-07T17:07:17.322Z,57.02
2017-09-07T17:09:43.123Z,58.18
2017-09-07T17:12:08.864Z,59.25
2017-09-07T17:14:35.346Z,60.00
2017-09-07T17:17:01.126Z,59.39
2017-09-07T17:19:26.959Z,60.72
2017-09-07T17:21:52.807Z,61.10
2017-09-07T17:24:18.543Z,61.20
2017-09-07T17:26:44.371Z,61.63
2017-09-07T17:29:10.139Z,61.73
2017-09-07T17:31:35.902Z,61.24
2017-09-07T17:34:02.591Z,62.69
2017-09-07T17:36:28.462Z,62.79
2017-09-07T17:38:54.238Z,63.27
2017-09-07T17:41:19.985Z,64.06
2017-09-07T17:43:45.771Z,64.05
2017-09-07T17:46:11.512Z,64.40
2017-09-07T17:48:37.312Z,65.89
2017-09-07T17:51:04.178Z,65.16
2017-09-07T17:53:29.974Z,65.94
2017-09-07T17:55:55.762Z,67.79
2017-09-07T17:58:21.601Z,67.91
2017-09-07T18:00:47.490Z,68.31
2017-09-07T18:03:13.393Z,68.35
2017-09-07T18:05:39.237Z,69.26
2017-09-07T18:08:05.103Z,69.09
2017-09-07T18:10:31.742Z,69.35
2017-09-07T18:12:57.507Z,70.00
2017-09-07T18:15:23.278Z,69.99
2017-09-07T18:17:49.143Z,69.80
2017-09-07T18:20:14.883Z,70.61
2017-09-07T18:22:40.690Z,70.84
2017-09-07T18:25:06.489Z,71.46
2017-09-07T18:27:32.764Z,72.02
2017-09-07T18:29:58.571Z,72.64
2017-09-07T18:32:24.415Z,72.74
2017-09-07T18:34:50.250Z,72.01
2017-09-07T18:37:16.050Z,72.18
2017-09-07T18:39:42.938Z,72.87
2017-09-07T18:42:08.795Z,73.99
2017-09-07T18:44:34.670Z,73.35
2017-09-07T18:47:00.463Z,74.23
2017-09-07T18:49:26.310Z,73.90
2017-09-07T18:51:52.061Z,74.92
2017-09-07T18:54:17.916Z,73.68
2017-09-07T18:56:43.719Z,74.56
2017-09-07T18:59:09.466Z,74.50
2017-09-07T19:01:35.247Z,74.93
2017-09-07T19:04:00.998Z,74.40
2017-09-07T19:06:26.872Z,75.01
2017-09-07T19:08:52.672Z,74.47
2017-09-07T19:11:18.531Z,74.44
2017-09-07T19:13:44.494Z,74.81
2017-09-07T19:16:10.445Z,74.75
2017-09-07T19:18:36.417Z,75.52
2017-09-07T19:21:02.416Z,75.65
2017-09-07T19:23:29.255Z,74.25
2017-09-07T19:25:55.676Z,75.23
2017-09-07T19:28:21.652Z,76.25
2017-09-07T19:30:47.446Z,77.82
2017-09-07T19:33:13.246Z,77.67
2017-09-07T19:35:39.045Z,76.81
2017-09-07T19:38:04.814Z,77.64
2017-09-07T19:40:30.562Z,76.68
2017-09-07T19:42:56.586Z,77.04
2017-09-07T19:45:22.359Z,76.55
2017-09-07T19:47:48.118Z,76.41
2017-09-07T19:50:14.034Z,76.18
2017-09-07T19:52:39.808Z,76.24
2017-09-07T19:55:05.590Z,76.34
2017-09-07T19:57:32.323Z,75.64
2017-09-07T19:59:58.075Z,75.37
2017-09-07T20:02:23.879Z,75.10
2017-09-07T20:04:49.714Z,75.40
2017-09-07T20:07:15.592Z,75.55
2017-09-07T20:09:41.426Z,75.79
2017-09-07T20:12:07.189Z,76.04
2017-09-07T20:14:33.047Z,76.14
2017-09-07T20:16:59.414Z,74.94
2017-09-07T20:19:25.383Z,74.93
2017-09-07T20:21:51.212Z,76.10
2017-09-07T20:24:17.465Z,76.71
2017-09-07T20:26:43.365Z,77.15
2017-09-07T20:29:10.008Z,77.17
2017-09-07T20:31:35.922Z,77.20
2017-09-07T20:34:02.020Z,78.12
2017-09-07T20:36:28.246Z,79.41
2017-09-07T20:38:54.458Z,78.80
2017-09-07T20:41:20.767Z,78.81
2017-09-07T20:43:46.635Z,79.34
2017-09-07T20:46:12.427Z,79.56
2017-09-07T20:48:38.187Z,78.83
2017-09-07T20:51:03.934Z,78.92
2017-09-07T20:53:29.732Z,78.86
2017-09-07T20:55:55.571Z,79.83
2017-09-07T20:58:21.320Z,79.63
2017-09-07T21:00:47.068Z,79.33
2017-09-07T21:03:12.859Z,79.23
2017-09-07T21:05:38.631Z,77.92
2017-09-07T21:08:04.583Z,77.66
2017-09-07T21:10:30.371Z,78.48
2017-09-07T21:12:56.127Z,77.73
2017-09-07T21:15:21.954Z,77.60
2017-09-07T21:17:47.755Z,78.30
2017-09-07T21:20:13.574Z,79.09
2017-09-07T21:22:39.427Z,78.88
2017-09-07T21:25:05.223Z,79.44
2017-09-07T21:27:31.105Z,79.66
2017-09-07T21:29:56.855Z,80.49
2017-09-07T21:32:22.691Z,81.25
2017-09-07T21:34:48.551Z,81.81
2017-09-07T21:37:14.327Z,81.74
2017-09-07T21:39:40.099Z,81.75
2017-09-07T21:42:05.858Z,81.67
2017-09-07T21:44:31.618Z,81.48
2017-09-07T21:46:57.475Z,81.41
2017-09-07T21:49:23.314Z,81.64
2017-09-07T21:51:49.072Z,81.50
2017-09-07T21:54:14.825Z,81.40
2017-09-07T21:56:40.671Z,81.53
2017-09-07T21:59:06.412Z,81.89
2017-09-07T22:01:32.207Z,82.46
2017-09-07T22:03:57.992Z,81.05
2017-09-07T22:06:23.743Z,81.15
2017-09-07T22:08:49.566Z,82.39
2017-09-07T22:11:15.419Z,81.93
2017-09-07T22:13:41.198Z,82.06
2017-09-07T22:16:06.935Z,82.19
2017-09-07T22:18:32.729Z,82.42
2017-09-07T22:20:58.479Z,82.41
2017-09-07T22:23:24.255Z,82.37
2017-09-07T22:25:50.087Z,82.88
2017-09-07T22:28:15.835Z,84.07
2017-09-07T22:30:41.679Z,84.33
2017-09-07T22:33:07.463Z,84.65
2017-09-07T22:35:33.232Z,83.72
2017-09-07T22:37:58.982Z,83.85
2017-09-07T22:40:24.730Z,83.78
2017-09-07T22:42:50.531Z,84.16
2017-09-07T22:45:16.303Z,84.79
2017-09-07T22:47:42.153Z,83.83
2017-09-07T22:50:07.983Z,84.10
2017-09-07T22:52:33.739Z,84.92
2017-09-07T22:54:59.514Z,84.60
2017-09-07T22:57:25.255Z,84.37
2017-09-07T22:59:51.048Z,84.30
2017-09-07T23:02:16.789Z,84.01
2017-09-07T23:04:42.600Z,84.03
2017-09-07T23:07:08.360Z,84.62
2017-09-07T23:09:34.710Z,84.80
2017-09-07T23:12:00.535Z,84.87
2017-09-07T23:14:26.275Z,83.92
2017-09-07T23:16:52.024Z,84.59
2017-09-07T23:19:17.834Z,84.44
2017-09-07T23:21:43.639Z,85.06
2017-09-07T23:24:09.426Z,85.40
2017-09-07T23:26:35.220Z,85.29
2017-09-07T23:29:00.955Z,85.33
2017-09-07T23:31:26.716Z,85.62
2017-09-07T23:33:52.490Z,85.38
2017-09-07T23:36:18.230Z,85.65
2017-09-07T23:38:44.092Z,85.38
2017-09-07T23:41:09.846Z,86.01
2017-09-07T23:43:35.611Z,85.66
2017-09-07T23:46:01.371Z,85.95
2017-09-07T23:48:27.163Z,85.75
2017-09-07T23:50:53.001Z,85.00
2017-09-07T23:53:18.746Z,84.38
2017-09-07T23:55:44.543Z,84.40
2017-09-07T23:58:10.290Z,84.65
